Time;durP1;ratioP1;P1;durP2;ratioP2;P2;SDS_P1;SDS_P2;PMS_P1;PMS_P2;Temp;Humidity;BMP_temperature;BMP_pressure;BME280_temperature;BME280_humidity;BME280_pressure;Samples;Min_cycle;Max_cycle;Signal;HPM_P1;HPM_P2
2021/03/07 00:00:10;;;;;;;10.90;8.33;;;;;;;-2.99;86.79;99173.22;5073205;28;20229;-67
2021/03/07 00:02:37;;;;;;;10.23;7.50;;;;;;;-2.97;86.40;99174.06;5072810;28;20688;-73
2021/03/07 00:05:04;;;;;;;12.63;7.80;;;;;;;-2.95;86.41;99168.03;5072858;28;20676;-67
2021/03/07 00:07:30;;;;;;;10.07;7.00;;;;;;;-2.93;85.63;99165.47;5073019;28;20215;-69
2021/03/07 00:09:56;;;;;;;10.67;7.20;;;;;;;-2.86;85.31;99167.19;5072972;28;20691;-67
2021/03/07 00:12:22;;;;;;;7.90;6.47;;;;;;;-2.85;84.93;99161.13;5073034;28;20207;-66
2021/03/07 00:14:48;;;;;;;9.17;6.80;;;;;;;-2.69;82.70;99163.72;5072734;28;20742;-66
2021/03/07 00:17:14;;;;;;;11.33;7.33;;;;;;;-2.60;82.07;99155.06;5072791;28;20249;-70
2021/03/07 00:19:40;;;;;;;10.00;6.83;;;;;;;-2.63;81.88;99160.28;5070897;28;20612;-71
2021/03/07 00:22:06;;;;;;;10.17;7.37;;;;;;;-2.67;81.46;99163.72;5073045;28;20218;-70
2021/03/07 00:24:33;;;;;;;11.57;6.90;;;;;;;-2.90;83.09;99158.56;5072788;28;20682;-70
2021/03/07 00:26:59;;;;;;;9.13;7.20;;;;;;;-3.04;84.29;99162.00;5073014;28;20261;-70
2021/03/07 00:29:26;;;;;;;9.80;7.10;;;;;;;-3.12;85.12;99158.56;5072568;28;20628;-70
2021/03/07 00:31:52;;;;;;;11.47;7.63;;;;;;;-3.16;85.74;99157.69;5072959;28;20214;-70
2021/03/07 00:34:18;;;;;;;10.23;7.20;;;;;;;-3.14;85.95;99155.09;5072881;28;20278;-69
2021/03/07 00:36:44;;;;;;;11.27;7.90;;;;;;;-3.22;86.77;99161.97;5073011;28;20293;-69
2021/03/07 00:39:10;;;;;;;10.93;7.40;;;;;;;-3.16;86.57;99154.22;5072575;28;20202;-69
2021/03/07 00:41:37;;;;;;;12.13;7.73;;;;;;;-3.24;87.44;99166.31;5072826;28;20310;-69
2021/03/07 00:44:04;;;;;;;10.03;7.40;;;;;;;-3.26;87.52;99160.25;5073673;28;20218;-69
2021/03/07 00:46:30;;;;;;;11.70;7.67;;;;;;;-3.30;87.67;99154.22;5075207;28;20673;-69
2021/03/07 00:48:57;;;;;;;10.57;7.53;;;;;;;-3.35;87.74;99150.78;5076707;28;20303;-69
2021/03/07 00:51:23;;;;;;;10.03;6.87;;;;;;;-3.41;88.59;99149.91;5076687;28;20210;-69
2021/03/07 00:53:49;;;;;;;12.53;8.40;;;;;;;-3.49;89.14;99149.03;5076335;28;20360;-69
2021/03/07 00:56:15;;;;;;;11.20;8.27;;;;;;;-3.47;89.30;99144.72;5076323;28;20322;-69
2021/03/07 00:58:41;;;;;;;12.57;7.77;;;;;;;-3.37;88.24;99141.31;5076542;28;20222;-69
2021/03/07 01:01:07;;;;;;;10.67;7.37;;;;;;;-3.40;88.08;99131.81;5076474;28;20219;-70
2021/03/07 01:03:33;;;;;;;13.30;7.80;;;;;;;-3.38;87.75;99139.56;5076337;28;20303;-70
2021/03/07 01:05:59;;;;;;;11.97;7.70;;;;;;;-3.42;88.27;99132.69;5076339;28;20288;-70
2021/03/07 01:08:25;;;;;;;9.13;7.27;;;;;;;-3.47;88.80;99127.50;5076065;28;20211;-71
2021/03/07 01:10:51;;;;;;;11.37;8.07;;;;;;;-3.50;89.37;99124.91;5076241;28;20246;-71
2021/03/07 01:13:18;;;;;;;11.93;7.60;;;;;;;-3.52;89.66;99128.34;5074309;28;20734;-69
2021/03/07 01:15:44;;;;;;;10.10;7.93;;;;;;;-3.57;89.95;99124.88;5075809;28;20247;-69
2021/03/07 01:18:12;;;;;;;10.93;7.77;;;;;;;-3.60;90.41;99123.16;5075881;28;20211;-69
2021/03/07 01:20:40;;;;;;;11.70;7.37;;;;;;;-3.54;89.85;99111.97;5076196;28;20206;-69
2021/03/07 01:23:06;;;;;;;12.17;7.77;;;;;;;-3.50;89.47;99118.84;5075738;28;20572;-69
2021/03/07 01:25:33;;;;;;;11.00;7.77;;;;;;;-3.50;89.12;99108.53;5075924;28;20290;-69
2021/03/07 01:27:59;;;;;;;10.47;7.53;;;;;;;-3.54;88.39;99106.81;5075787;28;20222;-69
2021/03/07 01:30:27;;;;;;;14.03;8.37;;;;;;;-3.61;89.51;99100.75;5075725;28;20215;-69
2021/03/07 01:32:54;;;;;;;10.17;7.47;;;;;;;-3.58;89.34;99094.75;5075520;28;20215;-70
2021/03/07 01:35:21;;;;;;;11.60;7.93;;;;;;;-3.66;89.60;99096.47;5075414;28;20240;-70
2021/03/07 01:37:47;;;;;;;11.27;7.53;;;;;;;-3.68;89.95;99095.59;5073687;28;20672;-71
2021/03/07 01:40:16;;;;;;;11.40;7.53;;;;;;;-3.69;89.75;99091.28;5075675;28;20280;-70
2021/03/07 01:42:44;;;;;;;10.63;7.63;;;;;;;-3.68;89.83;99083.53;5075418;28;20215;-71
2021/03/07 01:45:11;;;;;;;10.50;7.03;;;;;;;-3.66;89.25;99081.81;5075725;28;20203;-72
2021/03/07 01:47:38;;;;;;;10.13;7.10;;;;;;;-3.68;89.32;99078.38;5075575;28;20218;-70
2021/03/07 01:50:06;;;;;;;10.20;7.30;;;;;;;-3.72;89.62;99080.97;5075589;28;20208;-71
2021/03/07 01:52:32;;;;;;;11.70;7.40;;;;;;;-3.78;89.68;99075.78;5075229;28;20211;-71
2021/03/07 01:54:58;;;;;;;11.93;7.37;;;;;;;-3.80;90.62;99067.19;5075297;28;20235;-72
2021/03/07 01:57:27;;;;;;;9.50;6.93;;;;;;;-3.74;90.51;99072.34;5074961;28;20571;-72
2021/03/07 01:59:57;;;;;;;11.40;7.53;;;;;;;-3.66;90.13;99065.47;5075250;28;20214;-72
2021/03/07 02:02:23;;;;;;;8.63;6.20;;;;;;;-3.56;88.78;99057.72;5075199;28;20215;-72
2021/03/07 02:04:49;;;;;;;10.63;7.23;;;;;;;-3.58;89.56;99058.56;5073377;28;20692;-73
2021/03/07 02:07:16;;;;;;;10.57;6.87;;;;;;;-3.67;89.97;99053.41;5074841;28;20211;-72
2021/03/07 02:09:43;;;;;;;9.63;6.73;;;;;;;-3.54;88.77;99044.81;5074810;28;20207;-72
2021/03/07 02:12:09;;;;;;;9.73;7.03;;;;;;;-3.35;86.88;99041.38;5075059;28;20582;-72
2021/03/07 02:14:39;;;;;;;10.67;7.70;;;;;;;-3.41;87.03;99033.63;5074981;28;20262;-71
2021/03/07 02:17:06;;;;;;;9.53;6.87;;;;;;;-3.42;87.42;99035.31;5074861;28;20817;-71
2021/03/07 02:19:36;;;;;;;9.97;6.80;;;;;;;-3.47;87.26;99025.88;5074934;28;20208;-71
2021/03/07 02:22:05;;;;;;;10.13;7.40;;;;;;;-3.69;88.40;99021.53;5075106;28;20602;-71
2021/03/07 02:24:33;;;;;;;10.23;6.97;;;;;;;-3.85;89.67;99032.72;5074950;28;20215;-72
2021/03/07 02:27:00;;;;;;;10.03;6.97;;;;;;;-3.92;90.39;99023.25;5074846;28;20225;-71
2021/03/07 02:29:26;;;;;;;10.37;7.40;;;;;;;-3.95;91.34;99023.22;5074541;28;20213;-71
2021/03/07 02:31:55;;;;;;;8.97;6.67;;;;;;;-3.94;91.39;99020.66;5073045;28;20327;-72
2021/03/07 02:34:28;;;;;;;9.50;7.07;;;;;;;-3.82;90.91;99017.22;5074382;28;20214;-69
2021/03/07 02:36:59;;;;;;;9.63;6.37;;;;;;;-3.81;90.72;99018.94;5074797;28;20249;-69
2021/03/07 02:39:28;;;;;;;11.37;7.10;;;;;;;-3.89;91.63;99006.03;5074654;28;20249;-68
2021/03/07 02:41:58;;;;;;;8.70;6.87;;;;;;;-3.88;91.38;99001.72;5074765;28;20501;-69
2021/03/07 02:44:25;;;;;;;8.93;6.93;;;;;;;-3.86;91.23;99008.63;5074423;28;20226;-69
2021/03/07 02:46:52;;;;;;;10.07;6.23;;;;;;;-3.88;91.21;99009.47;5074241;28;20224;-70
2021/03/07 02:49:19;;;;;;;9.17;7.00;;;;;;;-3.93;91.54;98993.09;5074542;28;20223;-69
2021/03/07 02:51:48;;;;;;;11.33;7.40;;;;;;;-3.91;91.48;98997.41;5074377;28;20216;-70
2021/03/07 02:54:15;;;;;;;10.60;6.80;;;;;;;-3.90;90.89;98987.97;5074271;28;20207;-69
2021/03/07 02:56:47;;;;;;;10.00;7.10;;;;;;;-3.91;91.55;98991.41;5072332;28;20220;-73
2021/03/07 02:59:15;;;;;;;12.70;7.10;;;;;;;-3.91;91.23;98986.25;5074196;28;20215;-72
2021/03/07 03:01:42;;;;;;;10.10;6.73;;;;;;;-3.90;90.82;98985.38;5074255;28;20210;-72
2021/03/07 03:04:09;;;;;;;10.40;7.03;;;;;;;-3.85;89.82;98981.94;5074000;28;20226;-71
2021/03/07 03:06:38;;;;;;;10.77;7.67;;;;;;;-3.90;90.37;98982.78;5074040;28;20590;-71
2021/03/07 03:09:06;;;;;;;11.40;8.03;;;;;;;-3.99;91.33;98980.19;5072731;28;20213;-71
2021/03/07 03:11:35;;;;;;;11.97;7.13;;;;;;;-4.06;92.03;98981.03;5074073;28;20210;-71
2021/03/07 03:14:02;;;;;;;10.30;7.07;;;;;;;-4.05;92.25;98978.47;5073592;28;20228;-72
2021/03/07 03:16:32;;;;;;;12.33;7.47;;;;;;;-4.08;92.87;98967.28;5073939;28;20704;-71
2021/03/07 03:19:00;;;;;;;10.53;7.53;;;;;;;-4.05;92.99;98962.97;5073857;28;20221;-71
2021/03/07 03:21:26;;;;;;;12.57;7.57;;;;;;;-4.04;93.30;98961.28;5073771;28;20207;-71
2021/03/07 03:23:53;;;;;;;11.03;7.60;;;;;;;-4.06;93.50;98961.28;5072029;28;20333;-72
2021/03/07 03:26:19;;;;;;;9.13;6.83;;;;;;;-4.05;92.83;98962.97;5073402;28;20671;-73
2021/03/07 03:28:48;;;;;;;9.53;7.37;;;;;;;-4.08;93.40;98967.28;5073658;28;20225;-73
2021/03/07 03:31:14;;;;;;;10.57;7.63;;;;;;;-4.13;94.20;98962.13;5073564;28;20228;-73
2021/03/07 03:33:41;;;;;;;10.60;6.80;;;;;;;-4.05;93.83;98962.09;5073483;28;20215;-72
2021/03/07 03:36:07;;;;;;;10.77;7.67;;;;;;;-4.00;93.18;98968.16;5073582;28;20230;-68
2021/03/07 03:38:37;;;;;;;11.03;7.83;;;;;;;-4.02;93.79;98957.84;5073193;28;20211;-67
2021/03/07 03:41:04;;;;;;;12.43;7.50;;;;;;;-4.03;94.73;98969.00;5053157;28;20214;-70
2021/03/07 03:43:31;;;;;;;11.67;8.30;;;;;;;-4.01;96.01;98974.16;5053448;28;20265;-68
2021/03/07 03:46:01;;;;;;;11.63;8.17;;;;;;;-3.92;95.50;98975.03;5053057;28;20212;-68
2021/03/07 03:48:30;;;;;;;10.37;7.20;;;;;;;-3.93;95.06;98968.16;5051681;28;20219;-67
2021/03/07 03:50:59;;;;;;;10.47;8.17;;;;;;;-3.95;95.41;98961.28;5053226;28;20212;-67
2021/03/07 03:53:28;;;;;;;12.23;8.63;;;;;;;-3.93;95.34;98967.28;5052963;28;20716;-67
2021/03/07 03:55:55;;;;;;;11.53;8.40;;;;;;;-3.92;95.56;98956.97;5053229;28;20241;-67
2021/03/07 03:58:24;;;;;;;13.27;7.90;;;;;;;-3.92;96.07;98953.53;5053222;28;20578;-69
2021/03/07 04:00:51;;;;;;;11.27;8.57;;;;;;;-3.92;96.16;98959.56;5052922;28;20702;-71
2021/03/07 04:03:20;;;;;;;12.70;8.80;;;;;;;-3.94;96.81;98957.81;5052908;28;20207;-71
2021/03/07 04:05:47;;;;;;;13.20;9.47;;;;;;;-4.03;97.00;98950.94;5052857;28;20222;-71
2021/03/07 04:08:16;;;;;;;12.70;8.53;;;;;;;-3.99;97.21;98951.78;5053175;28;20582;-72
2021/03/07 04:10:43;;;;;;;10.70;7.73;;;;;;;-4.01;96.75;98935.44;5053074;28;20214;-71
2021/03/07 04:13:12;;;;;;;10.53;7.80;;;;;;;-3.98;96.67;98944.06;5053023;28;20210;-72
2021/03/07 04:15:39;;;;;;;11.90;8.47;;;;;;;-3.98;96.63;98943.22;5051358;28;20247;-71
2021/03/07 04:18:07;;;;;;;14.77;8.53;;;;;;;-3.95;96.85;98938.03;5052941;28;20219;-71
2021/03/07 04:20:33;;;;;;;9.90;8.13;;;;;;;-3.99;96.94;98938.88;5052511;28;20211;-71
2021/03/07 04:23:00;;;;;;;11.63;8.07;;;;;;;-3.90;95.64;98938.91;5052941;28;20208;-71
2021/03/07 04:25:26;;;;;;;11.30;7.33;;;;;;;-3.95;96.03;98936.31;5052882;28;20214;-71
2021/03/07 04:27:53;;;;;;;12.57;7.80;;;;;;;-3.94;96.01;98934.59;5052830;28;20210;-71
2021/03/07 04:30:21;;;;;;;10.43;7.23;;;;;;;-3.95;95.62;98935.47;5052842;28;20213;-71
2021/03/07 04:32:48;;;;;;;11.40;7.73;;;;;;;-3.93;95.79;98931.13;5052665;28;20218;-71
2021/03/07 04:35:14;;;;;;;10.33;6.90;;;;;;;-3.87;95.27;98932.00;5052547;28;20647;-70
2021/03/07 04:37:40;;;;;;;9.70;6.97;;;;;;;-3.86;94.39;98943.22;5052794;28;20208;-71
2021/03/07 04:40:07;;;;;;;11.97;7.67;;;;;;;-3.91;94.51;98932.88;5063687;28;20678;-69
2021/03/07 04:42:35;;;;;;;10.80;7.20;;;;;;;-4.02;95.45;98926.00;5072594;28;20207;-69
2021/03/07 04:45:02;;;;;;;12.27;7.57;;;;;;;-4.09;96.40;98934.59;5072755;28;20699;-68
2021/03/07 04:47:28;;;;;;;9.73;7.43;;;;;;;-4.12;96.45;98934.56;5072764;28;20214;-67
2021/03/07 04:49:54;;;;;;;12.73;7.60;;;;;;;-4.17;97.02;98931.16;5072355;28;20259;-68
2021/03/07 04:52:20;;;;;;;10.43;7.27;;;;;;;-4.18;96.60;98929.41;5072749;28;20241;-68
2021/03/07 04:54:46;;;;;;;10.53;7.23;;;;;;;-4.20;96.97;98928.56;5072514;28;20325;-69
2021/03/07 04:57:12;;;;;;;12.77;7.70;;;;;;;-4.21;97.31;98916.50;5072756;28;20210;-68
2021/03/07 04:59:38;;;;;;;10.50;7.83;;;;;;;-4.17;97.36;98918.25;5072911;28;20225;-66
2021/03/07 05:02:04;;;;;;;9.17;7.00;;;;;;;-4.19;96.94;98913.09;5072397;28;20219;-67
2021/03/07 05:04:31;;;;;;;11.13;7.33;;;;;;;-4.17;96.63;98911.34;5072412;28;20222;-68
2021/03/07 05:07:00;;;;;;;10.27;7.23;;;;;;;-4.11;96.94;98913.94;5070588;28;20210;-68
2021/03/07 05:09:26;;;;;;;12.40;7.57;;;;;;;-4.11;96.72;98918.22;5072296;28;20649;-68
2021/03/07 05:11:52;;;;;;;9.50;6.90;;;;;;;-4.11;97.24;98920.81;5072566;28;20253;-67
2021/03/07 05:14:18;;;;;;;10.33;7.40;;;;;;;-4.11;96.92;98913.94;5072391;28;20755;-69
2021/03/07 05:16:45;;;;;;;12.00;7.87;;;;;;;-4.10;96.55;98912.22;5072035;28;20275;-69
2021/03/07 05:19:11;;;;;;;9.37;6.97;;;;;;;-4.03;96.12;98908.78;5072596;28;20216;-69
2021/03/07 05:21:37;;;;;;;11.30;7.70;;;;;;;-3.97;95.79;98911.38;5072454;28;20216;-68
2021/03/07 05:24:04;;;;;;;11.67;8.10;;;;;;;-4.03;95.85;98911.38;5072392;28;20298;-68
2021/03/07 05:26:30;;;;;;;11.87;7.67;;;;;;;-3.96;95.97;98907.91;5072610;28;20218;-67
2021/03/07 05:28:56;;;;;;;10.13;7.13;;;;;;;-3.92;95.44;98907.06;5072000;28;20246;-68
2021/03/07 05:31:22;;;;;;;10.90;7.33;;;;;;;-3.90;95.23;98900.19;5073424;28;20222;-68
2021/03/07 05:33:49;;;;;;;10.03;7.27;;;;;;;-3.86;95.17;98910.50;5074310;28;20219;-67
2021/03/07 05:36:16;;;;;;;14.00;7.87;;;;;;;-3.94;96.09;98903.59;5075403;28;20252;-67
2021/03/07 05:38:42;;;;;;;11.33;8.03;;;;;;;-3.99;96.40;98903.63;5075537;28;20203;-67
2021/03/07 05:41:08;;;;;;;11.37;7.30;;;;;;;-3.81;96.70;98900.16;5075439;28;20226;-68
2021/03/07 05:43:34;;;;;;;10.53;6.90;;;;;;;-3.87;96.26;98900.16;5075943;28;20575;-69
2021/03/07 05:46:00;;;;;;;12.60;8.27;;;;;;;-3.89;97.88;98899.31;5075642;28;20237;-71
2021/03/07 05:48:28;;;;;;;10.80;7.37;;;;;;;-3.89;97.44;98897.59;5075389;28;20665;-71
2021/03/07 05:50:55;;;;;;;10.87;7.80;;;;;;;-3.98;97.57;98882.09;5075873;28;20206;-71
2021/03/07 05:53:21;;;;;;;13.27;7.60;;;;;;;-4.00;97.80;98882.94;5075298;28;20240;-71
2021/03/07 05:55:48;;;;;;;11.07;7.43;;;;;;;-4.05;97.84;98879.50;5075322;28;20362;-71
2021/03/07 05:58:17;;;;;;;12.83;8.30;;;;;;;-4.04;97.67;98881.25;5073903;28;20209;-70
2021/03/07 06:00:43;;;;;;;11.17;8.40;;;;;;;-4.06;97.88;98882.97;5075065;28;20219;-70
2021/03/07 06:03:09;;;;;;;12.53;8.10;;;;;;;-4.09;98.05;98883.81;5075355;28;20218;-70
2021/03/07 06:05:36;;;;;;;10.93;7.47;;;;;;;-3.96;97.07;98875.22;5075360;28;20581;-70
2021/03/07 06:08:03;;;;;;;10.60;7.30;;;;;;;-4.00;96.69;98872.63;5074960;28;20428;-70
2021/03/07 06:10:30;;;;;;;13.33;7.80;;;;;;;-4.03;96.29;98870.06;5075444;28;20210;-70
2021/03/07 06:12:59;;;;;;;10.47;7.60;;;;;;;-4.08;97.41;98864.91;5074835;28;20216;-70
2021/03/07 06:15:26;;;;;;;9.73;7.67;;;;;;;-4.09;98.29;98867.47;5074789;28;20246;-70
2021/03/07 06:17:52;;;;;;;11.87;8.07;;;;;;;-4.07;98.83;98866.63;5075070;28;20224;-70
2021/03/07 06:20:20;;;;;;;14.63;8.40;;;;;;;-3.95;98.71;98855.41;5075203;28;20223;-68
2021/03/07 06:22:52;;;;;;;12.10;7.93;;;;;;;-3.84;98.63;98864.03;5075165;28;20206;-69
2021/03/07 06:25:19;;;;;;;12.10;7.83;;;;;;;-3.69;98.69;98870.03;5073364;28;20245;-68
2021/03/07 06:27:45;;;;;;;13.23;8.43;;;;;;;-3.65;99.29;98865.72;5074605;28;20272;-69
2021/03/07 06:30:14;;;;;;;12.07;8.20;;;;;;;-3.64;100.00;98867.41;5075034;28;20211;-69
2021/03/07 06:32:42;;;;;;;11.50;8.33;;;;;;;-3.55;100.00;98872.59;5074575;28;20218;-69
2021/03/07 06:35:11;;;;;;;11.37;8.10;;;;;;;-3.40;99.46;98867.38;5074691;28;20246;-71
2021/03/07 06:37:51;;;;;;;9.70;7.30;;;;;;;-3.35;98.89;98863.06;5074657;28;20268;-71
2021/03/07 06:40:30;;;;;;;10.27;7.00;;;;;;;-3.17;97.38;98860.41;5074280;28;20264;-71
2021/03/07 06:42:57;;;;;;;11.03;7.87;;;;;;;-3.02;95.16;98857.75;5074352;28;20613;-71
2021/03/07 06:45:23;;;;;;;9.97;6.90;;;;;;;-2.90;93.75;98857.69;5074348;28;20696;-71
2021/03/07 06:47:57;;;;;;;10.37;7.10;;;;;;;-2.82;93.35;98859.38;5074615;28;20217;-71
2021/03/07 06:50:23;;;;;;;12.10;7.63;;;;;;;-2.65;91.98;98854.97;5072788;28;20223;-71
2021/03/07 06:52:52;;;;;;;10.43;7.10;;;;;;;-2.57;91.18;98854.94;5074155;28;20218;-71
2021/03/07 06:55:19;;;;;;;9.77;7.07;;;;;;;-2.52;90.93;98859.19;5074273;28;20235;-71
2021/03/07 06:57:46;;;;;;;9.97;7.30;;;;;;;-2.37;90.64;98855.66;5074197;28;20211;-70
2021/03/07 07:00:14;;;;;;;9.27;6.90;;;;;;;-2.28;89.96;98853.84;5073924;28;20227;-70
2021/03/07 07:02:40;;;;;;;10.60;7.27;;;;;;;-2.19;90.03;98860.69;5074225;28;20212;-70
2021/03/07 07:05:07;;;;;;;9.93;7.30;;;;;;;-2.15;89.99;98854.63;5073994;28;20272;-70
2021/03/07 07:07:33;;;;;;;9.73;7.17;;;;;;;-2.08;89.61;98861.47;5074104;28;20215;-70
2021/03/07 07:10:03;;;;;;;11.40;7.70;;;;;;;-1.98;89.66;98852.75;5074076;28;20298;-70
2021/03/07 07:12:30;;;;;;;9.63;7.10;;;;;;;-1.83;88.63;98857.81;5074035;28;20207;-68
2021/03/07 07:15:10;;;;;;;10.00;6.67;;;;;;;-1.78;88.61;98858.63;5073664;28;20239;-68
2021/03/07 07:17:36;;;;;;;10.67;6.90;;;;;;;-1.61;87.86;98861.94;5072185;28;20243;-68
2021/03/07 07:20:05;;;;;;;9.37;6.90;;;;;;;-1.61;87.56;98854.16;5073872;28;20208;-69
2021/03/07 07:22:31;;;;;;;9.17;6.80;;;;;;;-1.54;87.86;98864.41;5073734;28;20211;-68
2021/03/07 07:24:57;;;;;;;10.97;7.07;;;;;;;-1.36;87.64;98856.44;5073895;28;20211;-68
2021/03/07 07:27:23;;;;;;;10.33;7.43;;;;;;;-1.28;86.96;98854.66;5073736;28;20215;-69
2021/03/07 07:29:49;;;;;;;8.67;7.30;;;;;;;-1.14;86.02;98846.69;5073625;28;20207;-69
2021/03/07 07:32:22;;;;;;;8.67;6.60;;;;;;;-1.05;86.14;98846.59;5073712;28;20208;-70
2021/03/07 07:34:51;;;;;;;9.20;7.87;;;;;;;-0.97;85.85;98855.13;5073527;28;20211;-68
2021/03/07 07:37:23;;;;;;;9.67;6.63;;;;;;;-0.78;85.21;98854.88;5073589;28;20219;-69
2021/03/07 07:39:51;;;;;;;8.07;6.40;;;;;;;-0.71;84.77;98848.72;5073107;28;20677;-69
2021/03/07 07:42:20;;;;;;;11.17;6.80;;;;;;;-0.59;84.86;98847.69;5072342;28;20576;-68
2021/03/07 07:44:46;;;;;;;9.77;6.30;;;;;;;-0.40;83.92;98852.63;5073177;28;20209;-69
2021/03/07 07:47:13;;;;;;;9.70;7.30;;;;;;;-0.25;82.96;98846.34;5073491;28;20269;-70
2021/03/07 07:49:45;;;;;;;9.50;6.50;;;;;;;-0.18;81.55;98851.41;5073476;28;20215;-68
2021/03/07 07:52:48;;;;;;;9.27;6.60;;;;;;;-0.13;80.83;98848.75;5073232;28;20212;-69
2021/03/07 07:55:15;;;;;;;9.03;6.37;;;;;;;-0.08;81.51;98844.34;5072477;28;20235;-69
2021/03/07 07:57:51;;;;;;;7.80;6.37;;;;;;;0.08;80.65;98844.91;5072933;28;20820;-69
2021/03/07 08:00:20;;;;;;;8.57;6.57;;;;;;;0.27;79.33;98848.94;5073178;28;20212;-68
2021/03/07 08:02:51;;;;;;;7.83;5.77;;;;;;;0.41;77.55;98844.34;5073061;28;20665;-68
2021/03/07 08:05:45;;;;;;;8.17;5.93;;;;;;;0.53;78.15;98844.13;5073091;28;20624;-68
2021/03/07 08:08:13;;;;;;;7.23;5.60;;;;;;;0.69;77.90;98850.72;5065053;28;20246;-68
2021/03/07 08:10:48;;;;;;;9.00;6.47;;;;;;;0.71;78.03;98854.19;5072013;28;20558;-68
2021/03/07 08:13:16;;;;;;;10.07;6.37;;;;;;;0.71;77.33;98838.56;5073185;28;20216;-68
2021/03/07 08:15:51;;;;;;;10.07;6.80;;;;;;;0.85;77.39;98836.53;5072698;28;20248;-69
2021/03/07 08:18:19;;;;;;;8.67;6.27;;;;;;;1.03;77.01;98836.19;5072722;28;20671;-69
2021/03/07 08:21:06;;;;;;;7.97;6.10;;;;;;;1.16;75.16;98835.03;5072892;28;20275;-68
2021/03/07 08:23:54;;;;;;;7.43;6.10;;;;;;;1.21;74.65;98834.94;5072846;28;20228;-67
2021/03/07 08:26:21;;;;;;;8.07;6.13;;;;;;;1.32;74.80;98826.00;5072868;28;20208;-68
2021/03/07 08:28:47;;;;;;;7.23;5.80;;;;;;;1.42;74.82;98824.91;5072825;28;20208;-69
2021/03/07 08:31:34;;;;;;;8.17;6.17;;;;;;;1.47;73.24;98833.47;5072598;28;20212;-68
2021/03/07 08:34:21;;;;;;;7.67;5.90;;;;;;;1.52;73.80;98831.63;5072892;28;20248;-68
2021/03/07 08:36:59;;;;;;;9.27;6.30;;;;;;;1.65;73.76;98827.00;5072140;28;20727;-68
2021/03/07 08:39:25;;;;;;;9.43;6.37;;;;;;;1.72;73.02;98825.97;5072712;28;20201;-69
2021/03/07 08:42:01;;;;;;;7.73;6.37;;;;;;;1.86;72.39;98822.16;5072465;28;20214;-69
2021/03/07 08:44:28;;;;;;;8.47;6.33;;;;;;;2.05;71.79;98827.75;5072501;28;20222;-68
2021/03/07 08:46:54;;;;;;;7.97;6.43;;;;;;;2.10;69.96;98816.34;5072682;28;20262;-68
2021/03/07 08:49:24;;;;;;;10.13;6.53;;;;;;;2.17;68.88;98819.63;5072487;28;20302;-69
2021/03/07 08:51:51;;;;;;;7.87;6.27;;;;;;;2.30;69.19;98811.47;5072645;28;20217;-68
2021/03/07 08:54:20;;;;;;;7.13;5.57;;;;;;;2.36;68.30;98811.31;5072443;28;20216;-68
2021/03/07 08:56:48;;;;;;;8.80;6.47;;;;;;;2.32;67.49;98807.06;5072450;28;20607;-68
2021/03/07 08:59:14;;;;;;;7.97;6.80;;;;;;;2.47;67.84;98811.91;5072333;28;20209;-67
2021/03/07 09:01:41;;;;;;;8.17;6.40;;;;;;;2.58;68.89;98809.84;5070881;28;20219;-70
2021/03/07 09:04:09;;;;;;;8.03;6.30;;;;;;;2.57;68.12;98802.06;5072200;28;20667;-67
2021/03/07 09:06:37;;;;;;;8.97;6.83;;;;;;;2.66;66.15;98805.28;5075894;28;20209;-69
2021/03/07 09:09:05;;;;;;;8.60;6.10;;;;;;;2.67;66.88;98803.50;5076284;28;20213;-69
2021/03/07 09:11:32;;;;;;;9.47;6.13;;;;;;;2.76;66.99;98798.91;5076064;28;20214;-69
2021/03/07 09:13:59;;;;;;;8.07;6.53;;;;;;;2.91;65.18;98802.84;5076154;28;20210;-69
2021/03/07 09:16:36;;;;;;;8.00;6.00;;;;;;;2.95;64.81;98802.69;5076062;28;20242;-69
2021/03/07 09:19:03;;;;;;;7.40;6.23;;;;;;;3.01;63.25;98794.69;5075925;28;20213;-68
2021/03/07 09:21:29;;;;;;;9.40;6.00;;;;;;;3.08;62.29;98791.03;5075955;28;20579;-67
2021/03/07 09:23:55;;;;;;;8.50;6.27;;;;;;;3.06;62.94;98782.34;5076227;28;20210;-69
2021/03/07 09:26:22;;;;;;;8.17;6.27;;;;;;;3.19;67.07;98783.72;5075201;28;20215;-67
2021/03/07 09:28:50;;;;;;;8.43;6.20;;;;;;;3.27;63.99;98786.09;5074828;28;20670;-68
2021/03/07 09:31:18;;;;;;;8.57;6.30;;;;;;;3.34;63.01;98788.50;5075687;28;20737;-68
2021/03/07 09:33:48;;;;;;;7.60;5.87;;;;;;;3.39;65.72;98773.53;5075888;28;20209;-67
2021/03/07 09:36:14;;;;;;;8.80;6.23;;;;;;;3.45;65.22;98775.09;5075399;28;20246;-67
2021/03/07 09:38:47;;;;;;;9.93;6.40;;;;;;;3.60;65.12;98767.63;5075728;28;20219;-68
2021/03/07 09:41:15;;;;;;;8.13;6.30;;;;;;;3.76;63.18;98771.47;5075809;28;20681;-69
2021/03/07 09:43:44;;;;;;;9.10;5.93;;;;;;;3.91;62.49;98768.34;5075837;28;20616;-69
2021/03/07 09:46:12;;;;;;;7.90;6.00;;;;;;;4.07;60.44;98761.72;5075426;28;20209;-69
2021/03/07 09:48:39;;;;;;;6.97;5.80;;;;;;;4.01;60.57;98764.53;5075727;28;20585;-69
2021/03/07 09:51:06;;;;;;;8.93;6.00;;;;;;;4.06;60.59;98765.25;5075632;28;20219;-69
2021/03/07 09:53:37;;;;;;;7.40;5.67;;;;;;;4.09;60.69;98761.69;5074206;28;20210;-67
2021/03/07 09:56:04;;;;;;;9.47;6.50;;;;;;;4.17;61.52;98759.66;5072110;28;20235;-68
2021/03/07 09:58:37;;;;;;;8.80;6.67;;;;;;;4.41;62.85;98756.19;5074225;28;20559;-67
2021/03/07 10:01:05;;;;;;;10.17;6.60;;;;;;;4.61;61.99;98751.97;5074739;28;20306;-67
2021/03/07 10:03:33;;;;;;;10.03;7.33;;;;;;;4.77;60.94;98749.66;5074414;28;20221;-67
2021/03/07 10:06:06;;;;;;;10.20;7.10;;;;;;;4.90;61.18;98756.97;5074916;28;20210;-67
2021/03/07 10:08:34;;;;;;;9.00;6.97;;;;;;;4.98;58.48;98754.09;5075181;28;20211;-67
2021/03/07 10:11:26;;;;;;;9.60;7.27;;;;;;;5.06;58.27;98746.81;5075243;28;20268;-67
2021/03/07 10:14:00;;;;;;;8.83;6.57;;;;;;;5.23;57.80;98742.63;5060364;28;20689;-69
2021/03/07 10:16:28;;;;;;;9.37;6.87;;;;;;;5.38;58.29;98739.41;5074395;28;20245;-68
2021/03/07 10:19:11;;;;;;;10.93;6.87;;;;;;;5.56;58.07;98732.59;5072876;28;20659;-69
2021/03/07 10:21:38;;;;;;;10.77;7.50;;;;;;;5.66;55.59;98734.78;5074828;28;20208;-67
2021/03/07 10:24:06;;;;;;;8.93;7.03;;;;;;;5.70;55.76;98731.13;5075100;28;20208;-67
2021/03/07 10:26:32;;;;;;;9.13;7.50;;;;;;;5.84;56.04;98736.69;5074735;28;20237;-67
2021/03/07 10:28:58;;;;;;;10.30;7.63;;;;;;;6.13;55.78;98723.25;5074840;28;20212;-66
2021/03/07 10:31:24;;;;;;;10.10;7.20;;;;;;;6.43;54.89;98727.19;5075012;28;20208;-66
2021/03/07 10:33:53;;;;;;;9.53;7.50;;;;;;;6.76;54.59;98725.69;5074487;28;20231;-67
2021/03/07 10:36:20;;;;;;;10.00;7.40;;;;;;;7.02;53.26;98720.09;5074903;28;20235;-67
2021/03/07 10:38:49;;;;;;;11.87;8.50;;;;;;;7.13;51.91;98717.84;5074295;28;20731;-67
2021/03/07 10:41:24;;;;;;;9.87;7.70;;;;;;;7.28;52.55;98711.03;5074670;28;20212;-67
2021/03/07 10:43:51;;;;;;;11.43;7.70;;;;;;;7.41;52.35;98715.63;5074402;28;20212;-66
2021/03/07 10:46:27;;;;;;;10.67;7.70;;;;;;;7.46;51.20;98713.63;5072850;28;20216;-66
2021/03/07 10:48:54;;;;;;;8.90;7.20;;;;;;;7.32;51.68;98713.41;5074667;28;20217;-67
2021/03/07 10:51:21;;;;;;;9.83;7.77;;;;;;;7.33;51.53;98712.50;5074378;28;20209;-66
2021/03/07 10:53:47;;;;;;;12.57;9.03;;;;;;;7.37;52.13;98714.06;5074554;28;20212;-67
2021/03/07 10:56:13;;;;;;;10.37;8.13;;;;;;;7.25;52.08;98709.38;5074003;28;20700;-67
2021/03/07 10:58:39;;;;;;;11.07;8.70;;;;;;;7.16;52.40;98701.94;5073960;28;20616;-67
2021/03/07 11:01:05;;;;;;;10.60;8.33;;;;;;;7.02;53.64;98711.38;5074159;28;20236;-68
2021/03/07 11:03:32;;;;;;;10.93;8.20;;;;;;;6.96;53.52;98704.63;5074169;28;20584;-66
2021/03/07 11:05:58;;;;;;;11.03;8.30;;;;;;;6.88;53.27;98701.50;5074120;28;20207;-66
2021/03/07 11:08:25;;;;;;;10.33;8.47;;;;;;;6.83;53.02;98700.84;5074211;28;20205;-66
2021/03/07 11:10:50;;;;;;;10.90;8.27;;;;;;;6.72;53.49;98708.34;5073003;28;20215;-66
2021/03/07 11:13:17;;;;;;;10.10;7.67;;;;;;;6.53;53.34;98702.19;5073316;28;20250;-66
2021/03/07 11:15:42;;;;;;;10.53;7.57;;;;;;;6.45;53.58;98699.06;5073419;28;20243;-66
2021/03/07 11:18:09;;;;;;;10.97;8.37;;;;;;;6.32;54.00;98705.78;5073547;28;20251;-66
2021/03/07 11:20:34;;;;;;;11.83;8.67;;;;;;;6.55;53.90;98703.00;5073916;28;20702;-66
2021/03/07 11:23:00;;;;;;;10.43;7.97;;;;;;;6.73;53.72;98696.91;5073864;28;20240;-66
2021/03/07 11:25:27;;;;;;;11.53;7.90;;;;;;;6.86;54.17;98703.34;5073866;28;20684;-66
2021/03/07 11:27:53;;;;;;;9.73;7.97;;;;;;;6.98;53.13;98697.53;5073493;28;20208;-68
2021/03/07 11:30:20;;;;;;;10.50;7.83;;;;;;;7.17;52.47;98701.00;5073046;28;20684;-68
2021/03/07 11:32:46;;;;;;;9.60;7.10;;;;;;;7.13;53.25;98696.81;5073513;28;20219;-68
2021/03/07 11:35:13;;;;;;;9.53;7.13;;;;;;;7.22;52.75;98686.72;5073257;28;20213;-67